Weather at Cluj Avram Iancu International Airport

Public forecast

Using degrees Celsius for public forecast. Weather courtesy of forecast.io.

Current aviation weather report (METAR) for Cluj Avram Iancu International Airport

2024/05/28 05:00 (retrieved 27 minutes ago)

LRCL 280500Z 00000KT CAVOK 16/09 Q1016

Closest aviation forecast (TAF) to Cluj Avram Iancu International Airport

Forecast is more than 6 hours old.

Closest forecast is Sliač Airport, 214.7 nm (397.7 km) WNW.

2024/05/27 18:24 (retrieved 11 hours ago)

TAF TAF LZSL 271630Z 2718/2806 VRB03KT CAVOK TEMPO 2718/2722 9999 SCT045